This is the latest recevied weather packets stored in our database for station/object M8FSI-13. If no packets are shown the sender has not sent any weather packets the latest 10 day(s).
| Time | Temp. | Humidity | Pressure | Rain* | Wind** | Luminosity | Snow |
|---|---|---|---|---|---|---|---|
| 1777744533 | 15° C | 85% | 1012.4 hPa | 0 mm | - | - | - |
| 1777742739 | 14.44° C | 85% | 1012.6 hPa | 0 mm | - | - | - |
| 1777739718 | 13.89° C | 84% | 1013.3 hPa | 0.25 mm | - | - | - |
| 1777739159 | 13.33° C | 84% | 1013.2 hPa | 0.51 mm | - | - | - |
| 1777731935 | 17.78° C | 54% | 1015.1 hPa | 0 mm | - | - | - |
| 1777731322 | 17.78° C | 50% | 1015.1 hPa | 0 mm | - | - | - |
| 1777729536 | 17.78° C | 51% | 1015.5 hPa | 0 mm | - | - | - |
| 1777725920 | 17.78° C | 50% | 1016.5 hPa | 0 mm | - | - | - |
| 1777720520 | 17.22° C | 66% | 1017.7 hPa | 0 mm | - | - | - |
| 1777716949 | 16.67° C | 65% | 1018.3 hPa | 0 mm | - | - | - |
| 1777706720 | 11.11° C | 89% | 1019.5 hPa | 0 mm | - | - | - |
| 1777704319 | 11.11° C | 90% | 1019.6 hPa | 0 mm | - | - | - |
| 1777701940 | 11.11° C | 91% | 1019.6 hPa | 0 mm | - | - | - |
| 1777700121 | 11.11° C | 91% | 1019.5 hPa | 0 mm | - | - | - |
| 1777697120 | 11.11° C | 90% | 1019.7 hPa | 0 mm | - | - | - |
| 1777695320 | 11.11° C | 90% | 1019.5 hPa | 0 mm | - | - | - |
| 1777691790 | 11.11° C | 89% | 1020.1 hPa | 0 mm | - | - | - |
| 1777691120 | 11.11° C | 89% | 1020.1 hPa | 0 mm | - | - | - |
| 1777690534 | 11.11° C | 89% | 1020.2 hPa | 0 mm | - | - | - |
| 1777687524 | 11.11° C | 88% | 1020.2 hPa | 0 mm | - | - | - |
| 1777686320 | 11.11° C | 88% | 1020.3 hPa | 0 mm | - | - | - |
| 1777681539 | 10° C | 89% | 1021 hPa | 0 mm | - | - | - |
| 1777680934 | 10.56° C | 90% | 1021.1 hPa | 0 mm | - | - | - |
| 1777679158 | 10.56° C | 90% | 1021.4 hPa | 0 mm | - | - | - |
| 1777678519 | 10.56° C | 90% | 1021.5 hPa | 0 mm | - | - | - |
* Rain latest hour (hover to see other rain measurements)
** Current wind speed in m/s (hover to see current wind gust speed)